Incline Village, NV

2:53 PM PDT on September 19, 2014 (GMT -0700)
Crystal Vista | Change Station
CLOSE
Current Station
Personal Weather Station
Location: Incline Village, NV
Elevation: 7050 ft
Nearby Weather Stations

Elev 7050 ft 39.26 °N, 119.97 °W | Updated 1 minute ago

Clear
Clear
73.0 °F
Feels Like 76 °F
N
1.0
Wind Variable Wind from ESE
Gusts 10.0 mph

Today
High -- | Low -- °F
--% Chance of Precip.
Yesterday
High -- | Low -- °F
Precip. -- in
6:44 AM 7:01 PM
Waning Crescent, 16% visible
Pressure 30.13 in
Visibility 10.0 miles
Clouds Few 10000 ft
Heat Index 76 °F
Dew Point 39 °F
Humidity 29%
Rainfall 0.00 in
Snow Depth 0 in , 0 in , 0 in
UV 8 out of 12
Pollen 6.60 out of 12
Air Quality Not available.
Flu Activity Not available.
METAR KTRK 191950Z 30008KT 10SM FEW100 23/05 A3013

More Conditions Fewer Conditions

Pressure 30.13 in
Visibility 10.0 miles
Clouds Few 10000 ft
Heat Index 76 °F
Dew Point 39 °F
Humidity 29%
Rainfall 0.00 in
Snow Depth 0 in , 0 in , 0 in
UV 8 out of 12
Pollen 6.60 out of 12
Air Quality Not available.
Flu Activity Not available.
METAR KTRK 191950Z 30008KT 10SM FEW100 23/05 A3013

More Conditions Fewer Conditions

10-Day Weather Forecast

Almanac

Astronomy

Sep. 19, 2014 Rise Set
Actual Time 6:44 AM PDT 7:01 PM PDT
Civil Twilight 6:18 AM PDT 7:28 PM PDT
Nautical Twilight 5:46 AM PDT 7:59 PM PDT
Astronomical Twilight 5:14 AM PDT 8:31 PM PDT
Moon 2:35 AM PDT 4:32 PM PDT
Length of Visible Light 13h 10m
Length of Day
12h 16m
Tomorrow will be 2m 32s shorter.
Waning Crescent, 16% of the Moon is Illuminated
Today
Waning Crescent
Sep 24
New
Oct 1
First Quarter
Oct 8
Full
Oct 15
Last Quarter

Today's Extremes

State Highs State Lows

Community

WunderPhotos

Upload Photos

1,754,703 photos uploaded!

WunderBlogs® & News

By Dr. Jeff Masters
Director of Meteorology, Weather Underground
By Kari Strenfel
Meteorologist, Weather Underground
By Christopher C. Burt
Weather Historian, Weather Underground
September 19, 2014
September 19, 2014
September 19, 2014

Nearby

Snow Depth

Station Depth Elevation
Marlette Lake 0 in 8000 ft
Green Mountain 0 in 8000 ft
Granite Peak 0 in 7800 ft
Taylor Canyon 0 in 6200 ft
Sheldon 0 in 5860 ft

Earthquake Activity

City Distance Mag. Time & Date
Gabbs, Nevada 100 miles 3.3 4:37 AM PDT
2014-09-19
Livermore, California 145 miles 2.6 3:37 AM PDT
2014-09-19
Minimum magnitude displayed is 2.5.

Coastal Water Temperatures

Place Temperature
No Stations Reporting

Nearby Weather Stations